sensor_id;sensor_type;location;lat;lon;timestamp;temperature;humidity
15394;DHT22;7795;47.986;11.868;2023-09-12T00:00:55;20.60;74.00
15394;DHT22;7795;47.986;11.868;2023-09-12T00:03:23;20.60;74.00
15394;DHT22;7795;47.986;11.868;2023-09-12T00:05:52;20.60;74.10
15394;DHT22;7795;47.986;11.868;2023-09-12T00:08:18;20.60;74.30
15394;DHT22;7795;47.986;11.868;2023-09-12T00:10:44;20.50;74.20
15394;DHT22;7795;47.986;11.868;2023-09-12T00:13:11;20.50;74.30
15394;DHT22;7795;47.986;11.868;2023-09-12T00:15:37;20.40;74.30
15394;DHT22;7795;47.986;11.868;2023-09-12T00:18:03;20.40;74.20
15394;DHT22;7795;47.986;11.868;2023-09-12T00:20:29;20.40;74.20
15394;DHT22;7795;47.986;11.868;2023-09-12T00:22:55;20.40;74.10
15394;DHT22;7795;47.986;11.868;2023-09-12T00:25:21;20.30;74.10
15394;DHT22;7795;47.986;11.868;2023-09-12T00:27:47;20.30;74.20
15394;DHT22;7795;47.986;11.868;2023-09-12T00:30:15;20.30;74.30
15394;DHT22;7795;47.986;11.868;2023-09-12T00:32:41;20.30;74.60
15394;DHT22;7795;47.986;11.868;2023-09-12T00:35:07;20.20;74.60
15394;DHT22;7795;47.986;11.868;2023-09-12T00:37:33;20.20;74.80
15394;DHT22;7795;47.986;11.868;2023-09-12T00:39:59;20.20;74.90
15394;DHT22;7795;47.986;11.868;2023-09-12T00:42:25;20.20;74.90
15394;DHT22;7795;47.986;11.868;2023-09-12T00:44:51;20.20;75.80
15394;DHT22;7795;47.986;11.868;2023-09-12T00:47:19;20.10;75.10
15394;DHT22;7795;47.986;11.868;2023-09-12T00:49:46;20.10;75.10
15394;DHT22;7795;47.986;11.868;2023-09-12T00:52:13;20.10;75.10
15394;DHT22;7795;47.986;11.868;2023-09-12T00:54:40;20.10;75.00
15394;DHT22;7795;47.986;11.868;2023-09-12T00:57:06;20.00;74.90
15394;DHT22;7795;47.986;11.868;2023-09-12T00:59:32;20.00;74.90
15394;DHT22;7795;47.986;11.868;2023-09-12T01:01:58;20.00;74.90
15394;DHT22;7795;47.986;11.868;2023-09-12T01:04:26;20.00;74.90
15394;DHT22;7795;47.986;11.868;2023-09-12T01:06:52;20.00;75.00
15394;DHT22;7795;47.986;11.868;2023-09-12T01:09:18;19.90;74.90
15394;DHT22;7795;47.986;11.868;2023-09-12T01:11:44;19.90;75.00
15394;DHT22;7795;47.986;11.868;2023-09-12T01:14:10;19.90;75.10
15394;DHT22;7795;47.986;11.868;2023-09-12T01:16:36;19.90;75.20
15394;DHT22;7795;47.986;11.868;2023-09-12T01:19:02;19.80;75.10
15394;DHT22;7795;47.986;11.868;2023-09-12T01:21:48;19.80;75.20
15394;DHT22;7795;47.986;11.868;2023-09-12T01:24:48;19.80;75.70
15394;DHT22;7795;47.986;11.868;2023-09-12T01:27:27;19.70;75.60
15394;DHT22;7795;47.986;11.868;2023-09-12T01:29:56;19.70;75.40
15394;DHT22;7795;47.986;11.868;2023-09-12T01:32:22;19.70;75.30
15394;DHT22;7795;47.986;11.868;2023-09-12T01:34:48;19.60;75.30
15394;DHT22;7795;47.986;11.868;2023-09-12T01:37:13;19.60;75.30
15394;DHT22;7795;47.986;11.868;2023-09-12T01:39:40;19.60;75.40
15394;DHT22;7795;47.986;11.868;2023-09-12T01:42:08;19.50;75.40
15394;DHT22;7795;47.986;11.868;2023-09-12T01:44:37;19.50;75.40
15394;DHT22;7795;47.986;11.868;2023-09-12T01:47:05;19.50;75.50
15394;DHT22;7795;47.986;11.868;2023-09-12T01:49:33;19.50;75.50
15394;DHT22;7795;47.986;11.868;2023-09-12T01:51:59;19.40;75.50
15394;DHT22;7795;47.986;11.868;2023-09-12T01:54:26;19.40;75.50
15394;DHT22;7795;47.986;11.868;2023-09-12T01:56:53;19.40;75.50
15394;DHT22;7795;47.986;11.868;2023-09-12T01:59:19;19.40;75.50
15394;DHT22;7795;47.986;11.868;2023-09-12T02:01:46;19.30;76.30
15394;DHT22;7795;47.986;11.868;2023-09-12T02:04:12;19.30;75.60
15394;DHT22;7795;47.986;11.868;2023-09-12T02:06:38;19.30;75.60
15394;DHT22;7795;47.986;11.868;2023-09-12T02:09:04;19.30;75.60
15394;DHT22;7795;47.986;11.868;2023-09-12T02:11:29;19.30;75.70
15394;DHT22;7795;47.986;11.868;2023-09-12T02:13:55;19.30;75.80
15394;DHT22;7795;47.986;11.868;2023-09-12T02:16:21;19.30;75.90
15394;DHT22;7795;47.986;11.868;2023-09-12T02:18:48;19.20;75.90
15394;DHT22;7795;47.986;11.868;2023-09-12T02:21:13;19.20;76.00
15394;DHT22;7795;47.986;11.868;2023-09-12T02:23:41;19.20;76.00
15394;DHT22;7795;47.986;11.868;2023-09-12T02:26:07;19.20;76.00
15394;DHT22;7795;47.986;11.868;2023-09-12T02:28:32;19.20;75.90
15394;DHT22;7795;47.986;11.868;2023-09-12T02:30:58;19.10;75.80
15394;DHT22;7795;47.986;11.868;2023-09-12T02:33:24;19.10;75.80
15394;DHT22;7795;47.986;11.868;2023-09-12T02:35:51;19.10;75.80
15394;DHT22;7795;47.986;11.868;2023-09-12T02:38:17;19.10;76.00
15394;DHT22;7795;47.986;11.868;2023-09-12T02:40:43;19.10;76.00
15394;DHT22;7795;47.986;11.868;2023-09-12T02:43:09;19.10;76.10
15394;DHT22;7795;47.986;11.868;2023-09-12T02:45:35;19.00;76.10
15394;DHT22;7795;47.986;11.868;2023-09-12T02:48:01;19.00;76.10
15394;DHT22;7795;47.986;11.868;2023-09-12T02:50:27;19.00;76.20
15394;DHT22;7795;47.986;11.868;2023-09-12T02:52:54;19.00;76.20
15394;DHT22;7795;47.986;11.868;2023-09-12T02:55:19;18.90;76.10
15394;DHT22;7795;47.986;11.868;2023-09-12T02:57:45;18.90;76.10
15394;DHT22;7795;47.986;11.868;2023-09-12T03:00:12;18.90;76.00
15394;DHT22;7795;47.986;11.868;2023-09-12T03:02:39;18.90;76.00
15394;DHT22;7795;47.986;11.868;2023-09-12T03:05:05;18.90;76.00
15394;DHT22;7795;47.986;11.868;2023-09-12T03:07:31;18.80;76.00
15394;DHT22;7795;47.986;11.868;2023-09-12T03:09:58;18.80;76.10
15394;DHT22;7795;47.986;11.868;2023-09-12T03:12:24;18.80;76.30
15394;DHT22;7795;47.986;11.868;2023-09-12T03:14:49;18.80;76.40
15394;DHT22;7795;47.986;11.868;2023-09-12T03:17:15;18.80;76.50
15394;DHT22;7795;47.986;11.868;2023-09-12T03:19:41;18.80;76.60
15394;DHT22;7795;47.986;11.868;2023-09-12T03:22:07;18.80;76.60
15394;DHT22;7795;47.986;11.868;2023-09-12T03:24:32;18.80;76.70
15394;DHT22;7795;47.986;11.868;2023-09-12T03:26:59;18.80;76.70
15394;DHT22;7795;47.986;11.868;2023-09-12T03:29:25;18.70;76.60
15394;DHT22;7795;47.986;11.868;2023-09-12T03:31:51;18.70;76.50
15394;DHT22;7795;47.986;11.868;2023-09-12T03:34:16;18.70;76.60
15394;DHT22;7795;47.986;11.868;2023-09-12T03:36:42;18.60;76.50
15394;DHT22;7795;47.986;11.868;2023-09-12T03:39:08;18.60;76.40
15394;DHT22;7795;47.986;11.868;2023-09-12T03:41:34;18.60;76.50
15394;DHT22;7795;47.986;11.868;2023-09-12T03:44:01;18.60;76.50
15394;DHT22;7795;47.986;11.868;2023-09-12T03:46:27;18.60;76.60
15394;DHT22;7795;47.986;11.868;2023-09-12T03:48:53;18.60;76.60
15394;DHT22;7795;47.986;11.868;2023-09-12T03:51:19;18.50;76.70
15394;DHT22;7795;47.986;11.868;2023-09-12T03:53:44;18.50;76.70
15394;DHT22;7795;47.986;11.868;2023-09-12T03:56:13;18.50;77.50
15394;DHT22;7795;47.986;11.868;2023-09-12T03:58:39;18.50;76.90
15394;DHT22;7795;47.986;11.868;2023-09-12T04:01:06;18.50;76.70
15394;DHT22;7795;47.986;11.868;2023-09-12T04:03:32;18.40;76.70
15394;DHT22;7795;47.986;11.868;2023-09-12T04:05:58;18.40;76.60
15394;DHT22;7795;47.986;11.868;2023-09-12T04:08:24;18.40;76.60
15394;DHT22;7795;47.986;11.868;2023-09-12T04:10:50;18.40;76.70
15394;DHT22;7795;47.986;11.868;2023-09-12T04:13:15;18.30;76.70
15394;DHT22;7795;47.986;11.868;2023-09-12T04:15:41;18.30;76.70
15394;DHT22;7795;47.986;11.868;2023-09-12T04:18:08;18.30;76.90
15394;DHT22;7795;47.986;11.868;2023-09-12T04:20:34;18.20;76.90
15394;DHT22;7795;47.986;11.868;2023-09-12T04:23:01;18.20;77.00
15394;DHT22;7795;47.986;11.868;2023-09-12T04:25:28;18.20;77.10
15394;DHT22;7795;47.986;11.868;2023-09-12T04:27:53;18.10;77.00
15394;DHT22;7795;47.986;11.868;2023-09-12T04:30:19;18.10;77.00
15394;DHT22;7795;47.986;11.868;2023-09-12T04:32:45;18.10;77.10
15394;DHT22;7795;47.986;11.868;2023-09-12T04:35:12;18.10;77.30
15394;DHT22;7795;47.986;11.868;2023-09-12T04:37:38;18.10;77.30
15394;DHT22;7795;47.986;11.868;2023-09-12T04:40:04;18.10;77.40
15394;DHT22;7795;47.986;11.868;2023-09-12T04:42:32;18.00;77.40
15394;DHT22;7795;47.986;11.868;2023-09-12T04:44:57;18.00;77.40
15394;DHT22;7795;47.986;11.868;2023-09-12T04:47:23;18.00;77.40
15394;DHT22;7795;47.986;11.868;2023-09-12T04:49:49;18.00;77.50
15394;DHT22;7795;47.986;11.868;2023-09-12T04:52:16;18.00;78.40
15394;DHT22;7795;47.986;11.868;2023-09-12T04:54:42;18.00;77.90
15394;DHT22;7795;47.986;11.868;2023-09-12T04:57:07;18.00;77.80
15394;DHT22;7795;47.986;11.868;2023-09-12T04:59:33;18.00;77.70
15394;DHT22;7795;47.986;11.868;2023-09-12T05:01:59;17.90;77.50
15394;DHT22;7795;47.986;11.868;2023-09-12T05:04:25;17.90;77.40
15394;DHT22;7795;47.986;11.868;2023-09-12T05:06:51;17.90;77.40
15394;DHT22;7795;47.986;11.868;2023-09-12T05:09:18;17.90;77.40
15394;DHT22;7795;47.986;11.868;2023-09-12T05:11:43;17.90;77.60
15394;DHT22;7795;47.986;11.868;2023-09-12T05:14:09;17.80;77.60
15394;DHT22;7795;47.986;11.868;2023-09-12T05:16:35;17.80;77.80
15394;DHT22;7795;47.986;11.868;2023-09-12T05:19:01;17.80;78.00
15394;DHT22;7795;47.986;11.868;2023-09-12T05:21:27;17.80;78.10
15394;DHT22;7795;47.986;11.868;2023-09-12T05:23:53;17.90;78.30
15394;DHT22;7795;47.986;11.868;2023-09-12T05:26:20;17.80;78.40
15394;DHT22;7795;47.986;11.868;2023-09-12T05:28:45;17.90;78.60
15394;DHT22;7795;47.986;11.868;2023-09-12T05:31:11;17.90;78.60
15394;DHT22;7795;47.986;11.868;2023-09-12T05:33:37;17.90;78.60
15394;DHT22;7795;47.986;11.868;2023-09-12T05:36:03;17.90;78.70
15394;DHT22;7795;47.986;11.868;2023-09-12T05:38:29;17.90;78.70
15394;DHT22;7795;47.986;11.868;2023-09-12T05:40:56;18.00;78.80
15394;DHT22;7795;47.986;11.868;2023-09-12T05:43:23;18.00;78.90
15394;DHT22;7795;47.986;11.868;2023-09-12T05:45:49;18.00;78.90
15394;DHT22;7795;47.986;11.868;2023-09-12T05:48:14;18.00;78.90
15394;DHT22;7795;47.986;11.868;2023-09-12T05:50:40;18.00;78.90
15394;DHT22;7795;47.986;11.868;2023-09-12T05:53:08;18.10;79.00
15394;DHT22;7795;47.986;11.868;2023-09-12T05:55:33;18.10;79.10
15394;DHT22;7795;47.986;11.868;2023-09-12T05:57:59;18.20;79.20
15394;DHT22;7795;47.986;11.868;2023-09-12T06:00:26;18.20;79.20
15394;DHT22;7795;47.986;11.868;2023-09-12T06:02:52;18.30;79.30
15394;DHT22;7795;47.986;11.868;2023-09-12T06:05:18;18.40;79.30
15394;DHT22;7795;47.986;11.868;2023-09-12T06:07:43;18.40;79.30
15394;DHT22;7795;47.986;11.868;2023-09-12T06:10:09;18.50;79.40
15394;DHT22;7795;47.986;11.868;2023-09-12T06:12:35;18.60;79.50
15394;DHT22;7795;47.986;11.868;2023-09-12T06:15:01;18.60;79.50
15394;DHT22;7795;47.986;11.868;2023-09-12T06:17:29;18.70;79.60
15394;DHT22;7795;47.986;11.868;2023-09-12T06:19:54;18.80;79.60
15394;DHT22;7795;47.986;11.868;2023-09-12T06:22:21;18.90;79.60
15394;DHT22;7795;47.986;11.868;2023-09-12T06:24:48;19.00;79.70
15394;DHT22;7795;47.986;11.868;2023-09-12T06:27:14;19.10;79.90
15394;DHT22;7795;47.986;11.868;2023-09-12T06:29:44;19.30;80.00
15394;DHT22;7795;47.986;11.868;2023-09-12T06:32:10;19.40;80.10
15394;DHT22;7795;47.986;11.868;2023-09-12T06:34:37;19.60;80.40
15394;DHT22;7795;47.986;11.868;2023-09-12T06:37:03;19.80;80.70
15394;DHT22;7795;47.986;11.868;2023-09-12T06:39:29;20.10;80.80
15394;DHT22;7795;47.986;11.868;2023-09-12T06:41:55;20.40;80.70
15394;DHT22;7795;47.986;11.868;2023-09-12T06:44:21;20.80;80.20
15394;DHT22;7795;47.986;11.868;2023-09-12T06:46:47;21.10;79.40
15394;DHT22;7795;47.986;11.868;2023-09-12T06:49:12;21.30;78.80
15394;DHT22;7795;47.986;11.868;2023-09-12T06:51:39;21.50;78.00
15394;DHT22;7795;47.986;11.868;2023-09-12T06:54:05;21.70;77.40
15394;DHT22;7795;47.986;11.868;2023-09-12T06:56:31;21.80;77.00
15394;DHT22;7795;47.986;11.868;2023-09-12T06:58:57;21.90;76.70
15394;DHT22;7795;47.986;11.868;2023-09-12T07:01:25;21.90;76.60
15394;DHT22;7795;47.986;11.868;2023-09-12T07:03:50;21.90;76.40
15394;DHT22;7795;47.986;11.868;2023-09-12T07:06:19;22.00;76.40
15394;DHT22;7795;47.986;11.868;2023-09-12T07:08:46;22.00;76.30
15394;DHT22;7795;47.986;11.868;2023-09-12T07:11:12;22.00;76.30
15394;DHT22;7795;47.986;11.868;2023-09-12T07:13:38;22.00;76.20
15394;DHT22;7795;47.986;11.868;2023-09-12T07:16:03;22.00;76.20
15394;DHT22;7795;47.986;11.868;2023-09-12T07:18:30;22.10;77.00
15394;DHT22;7795;47.986;11.868;2023-09-12T07:20:58;22.10;76.30
15394;DHT22;7795;47.986;11.868;2023-09-12T07:23:24;22.10;76.30
15394;DHT22;7795;47.986;11.868;2023-09-12T07:25:51;22.10;76.30
15394;DHT22;7795;47.986;11.868;2023-09-12T07:28:18;22.20;76.60
15394;DHT22;7795;47.986;11.868;2023-09-12T07:30:45;22.20;76.80
15394;DHT22;7795;47.986;11.868;2023-09-12T07:33:11;22.20;76.90
15394;DHT22;7795;47.986;11.868;2023-09-12T07:35:37;22.30;76.90
15394;DHT22;7795;47.986;11.868;2023-09-12T07:38:03;22.30;77.00
15394;DHT22;7795;47.986;11.868;2023-09-12T07:40:28;22.40;77.30
15394;DHT22;7795;47.986;11.868;2023-09-12T07:42:56;22.50;77.40
15394;DHT22;7795;47.986;11.868;2023-09-12T07:45:21;22.60;77.50
15394;DHT22;7795;47.986;11.868;2023-09-12T07:47:47;22.70;77.40
15394;DHT22;7795;47.986;11.868;2023-09-12T07:50:14;22.80;77.60
15394;DHT22;7795;47.986;11.868;2023-09-12T07:52:39;22.90;77.60
15394;DHT22;7795;47.986;11.868;2023-09-12T07:55:07;22.90;77.60
15394;DHT22;7795;47.986;11.868;2023-09-12T07:57:33;23.00;77.60
15394;DHT22;7795;47.986;11.868;2023-09-12T08:00:01;23.10;78.00
15394;DHT22;7795;47.986;11.868;2023-09-12T08:02:27;23.20;77.10
15394;DHT22;7795;47.986;11.868;2023-09-12T08:04:53;23.30;76.80
15394;DHT22;7795;47.986;11.868;2023-09-12T08:07:19;23.40;76.60
15394;DHT22;7795;47.986;11.868;2023-09-12T08:09:49;23.50;76.50
15394;DHT22;7795;47.986;11.868;2023-09-12T08:12:16;23.70;76.40
15394;DHT22;7795;47.986;11.868;2023-09-12T08:14:41;23.80;76.40
15394;DHT22;7795;47.986;11.868;2023-09-12T08:17:09;23.90;76.10
15394;DHT22;7795;47.986;11.868;2023-09-12T08:19:34;24.00;75.80
15394;DHT22;7795;47.986;11.868;2023-09-12T08:22:00;24.10;75.70
15394;DHT22;7795;47.986;11.868;2023-09-12T08:24:26;24.30;75.70
15394;DHT22;7795;47.986;11.868;2023-09-12T08:26:52;24.40;75.70
15394;DHT22;7795;47.986;11.868;2023-09-12T08:29:17;24.50;75.50
15394;DHT22;7795;47.986;11.868;2023-09-12T08:31:43;24.60;75.40
15394;DHT22;7795;47.986;11.868;2023-09-12T08:34:11;24.70;75.00
15394;DHT22;7795;47.986;11.868;2023-09-12T08:36:37;24.80;74.60
15394;DHT22;7795;47.986;11.868;2023-09-12T08:39:03;25.00;74.50
15394;DHT22;7795;47.986;11.868;2023-09-12T08:41:30;25.10;74.30
15394;DHT22;7795;47.986;11.868;2023-09-12T08:43:56;25.20;74.10
15394;DHT22;7795;47.986;11.868;2023-09-12T08:46:22;25.30;73.80
15394;DHT22;7795;47.986;11.868;2023-09-12T08:48:49;25.40;73.80
15394;DHT22;7795;47.986;11.868;2023-09-12T08:51:16;25.50;73.50
15394;DHT22;7795;47.986;11.868;2023-09-12T08:53:42;25.60;73.10
15394;DHT22;7795;47.986;11.868;2023-09-12T08:56:09;25.70;72.90
15394;DHT22;7795;47.986;11.868;2023-09-12T08:58:35;25.80;72.70
15394;DHT22;7795;47.986;11.868;2023-09-12T09:01:01;25.90;72.70
15394;DHT22;7795;47.986;11.868;2023-09-12T09:03:29;26.00;72.60
15394;DHT22;7795;47.986;11.868;2023-09-12T09:05:55;26.10;72.30
15394;DHT22;7795;47.986;11.868;2023-09-12T09:08:25;26.20;72.00
15394;DHT22;7795;47.986;11.868;2023-09-12T09:10:56;26.20;71.70
15394;DHT22;7795;47.986;11.868;2023-09-12T09:13:22;26.30;71.30
15394;DHT22;7795;47.986;11.868;2023-09-12T09:15:47;26.40;71.40
15394;DHT22;7795;47.986;11.868;2023-09-12T09:18:13;26.50;71.40
15394;DHT22;7795;47.986;11.868;2023-09-12T09:20:39;26.60;71.30
15394;DHT22;7795;47.986;11.868;2023-09-12T09:23:07;26.70;70.90
15394;DHT22;7795;47.986;11.868;2023-09-12T09:25:39;26.80;70.70
15394;DHT22;7795;47.986;11.868;2023-09-12T09:28:15;26.90;71.00
15394;DHT22;7795;47.986;11.868;2023-09-12T09:30:42;27.00;70.40
15394;DHT22;7795;47.986;11.868;2023-09-12T09:33:09;27.00;69.70
15394;DHT22;7795;47.986;11.868;2023-09-12T09:35:35;27.10;69.20
15394;DHT22;7795;47.986;11.868;2023-09-12T09:38:01;27.20;68.90
15394;DHT22;7795;47.986;11.868;2023-09-12T09:40:28;27.30;68.10
15394;DHT22;7795;47.986;11.868;2023-09-12T09:42:55;27.40;67.80
15394;DHT22;7795;47.986;11.868;2023-09-12T09:45:21;27.50;67.40
15394;DHT22;7795;47.986;11.868;2023-09-12T09:47:49;27.50;67.10
15394;DHT22;7795;47.986;11.868;2023-09-12T09:50:16;27.60;66.60
15394;DHT22;7795;47.986;11.868;2023-09-12T09:52:42;27.70;65.90
15394;DHT22;7795;47.986;11.868;2023-09-12T09:55:13;27.70;66.40
15394;DHT22;7795;47.986;11.868;2023-09-12T09:57:39;27.80;65.10
15394;DHT22;7795;47.986;11.868;2023-09-12T10:00:07;27.90;65.50
15394;DHT22;7795;47.986;11.868;2023-09-12T10:02:38;28.00;65.00
15394;DHT22;7795;47.986;11.868;2023-09-12T10:05:06;28.00;64.90
15394;DHT22;7795;47.986;11.868;2023-09-12T10:07:36;28.20;65.40
15394;DHT22;7795;47.986;11.868;2023-09-12T10:10:03;28.20;64.70
15394;DHT22;7795;47.986;11.868;2023-09-12T10:12:30;28.30;64.60
15394;DHT22;7795;47.986;11.868;2023-09-12T10:14:57;28.40;64.60
15394;DHT22;7795;47.986;11.868;2023-09-12T10:17:31;28.40;64.10
15394;DHT22;7795;47.986;11.868;2023-09-12T10:20:02;28.50;63.80
15394;DHT22;7795;47.986;11.868;2023-09-12T10:22:43;28.60;63.50
15394;DHT22;7795;47.986;11.868;2023-09-12T10:25:13;28.70;62.90
15394;DHT22;7795;47.986;11.868;2023-09-12T10:27:40;28.80;63.60
15394;DHT22;7795;47.986;11.868;2023-09-12T10:30:07;28.80;63.30
15394;DHT22;7795;47.986;11.868;2023-09-12T10:32:35;28.90;63.00
15394;DHT22;7795;47.986;11.868;2023-09-12T10:35:02;29.00;63.10
15394;DHT22;7795;47.986;11.868;2023-09-12T10:37:29;29.10;62.80
15394;DHT22;7795;47.986;11.868;2023-09-12T10:39:59;29.20;62.90
15394;DHT22;7795;47.986;11.868;2023-09-12T10:42:27;29.20;62.90
15394;DHT22;7795;47.986;11.868;2023-09-12T10:44:54;29.30;62.70
15394;DHT22;7795;47.986;11.868;2023-09-12T10:47:21;29.40;62.80
15394;DHT22;7795;47.986;11.868;2023-09-12T10:49:48;29.50;62.90
15394;DHT22;7795;47.986;11.868;2023-09-12T10:52:24;29.50;62.60
15394;DHT22;7795;47.986;11.868;2023-09-12T10:54:50;29.60;62.00
15394;DHT22;7795;47.986;11.868;2023-09-12T10:57:16;29.70;62.20
15394;DHT22;7795;47.986;11.868;2023-09-12T11:00:12;29.70;61.70
15394;DHT22;7795;47.986;11.868;2023-09-12T11:02:38;29.80;60.50
15394;DHT22;7795;47.986;11.868;2023-09-12T11:05:07;29.90;61.40
15394;DHT22;7795;47.986;11.868;2023-09-12T11:07:56;29.90;60.80
15394;DHT22;7795;47.986;11.868;2023-09-12T11:10:22;30.00;60.60
15394;DHT22;7795;47.986;11.868;2023-09-12T11:12:50;30.00;60.90
15394;DHT22;7795;47.986;11.868;2023-09-12T11:15:16;30.00;60.10
15394;DHT22;7795;47.986;11.868;2023-09-12T11:17:43;30.10;59.90
15394;DHT22;7795;47.986;11.868;2023-09-12T11:20:11;30.10;59.10
15394;DHT22;7795;47.986;11.868;2023-09-12T11:22:39;30.20;58.30
15394;DHT22;7795;47.986;11.868;2023-09-12T11:25:16;30.20;58.70
15394;DHT22;7795;47.986;11.868;2023-09-12T11:28:03;30.30;58.00
15394;DHT22;7795;47.986;11.868;2023-09-12T11:30:29;30.30;57.80
15394;DHT22;7795;47.986;11.868;2023-09-12T11:32:57;30.40;58.40
15394;DHT22;7795;47.986;11.868;2023-09-12T11:35:25;30.40;58.30
15394;DHT22;7795;47.986;11.868;2023-09-12T11:37:53;30.40;58.10
15394;DHT22;7795;47.986;11.868;2023-09-12T11:40:23;30.50;57.90
15394;DHT22;7795;47.986;11.868;2023-09-12T11:42:49;30.50;58.00
15394;DHT22;7795;47.986;11.868;2023-09-12T11:45:17;30.50;57.80
15394;DHT22;7795;47.986;11.868;2023-09-12T11:47:44;30.50;57.60
15394;DHT22;7795;47.986;11.868;2023-09-12T11:53:18;30.60;57.60
15394;DHT22;7795;47.986;11.868;2023-09-12T11:55:46;30.60;57.10
15394;DHT22;7795;47.986;11.868;2023-09-12T11:58:13;30.60;57.20
15394;DHT22;7795;47.986;11.868;2023-09-12T12:00:43;30.60;57.40
15394;DHT22;7795;47.986;11.868;2023-09-12T12:03:09;30.70;57.10
15394;DHT22;7795;47.986;11.868;2023-09-12T12:05:35;30.70;57.00
15394;DHT22;7795;47.986;11.868;2023-09-12T12:08:01;30.70;57.00
15394;DHT22;7795;47.986;11.868;2023-09-12T12:10:29;30.70;57.20
15394;DHT22;7795;47.986;11.868;2023-09-12T12:12:55;30.70;56.80
15394;DHT22;7795;47.986;11.868;2023-09-12T12:15:21;30.80;57.20
15394;DHT22;7795;47.986;11.868;2023-09-12T12:17:47;30.80;57.40
15394;DHT22;7795;47.986;11.868;2023-09-12T12:20:13;30.80;57.10
15394;DHT22;7795;47.986;11.868;2023-09-12T12:22:39;30.90;57.10
15394;DHT22;7795;47.986;11.868;2023-09-12T12:25:06;31.00;56.80
15394;DHT22;7795;47.986;11.868;2023-09-12T12:27:35;31.00;56.90
15394;DHT22;7795;47.986;11.868;2023-09-12T12:30:01;31.10;56.40
15394;DHT22;7795;47.986;11.868;2023-09-12T12:32:27;31.10;56.20
15394;DHT22;7795;47.986;11.868;2023-09-12T12:34:53;31.20;56.40
15394;DHT22;7795;47.986;11.868;2023-09-12T12:37:18;31.20;56.10
15394;DHT22;7795;47.986;11.868;2023-09-12T12:39:44;31.30;56.20
15394;DHT22;7795;47.986;11.868;2023-09-12T12:42:10;31.30;56.00
15394;DHT22;7795;47.986;11.868;2023-09-12T12:44:37;31.30;55.70
15394;DHT22;7795;47.986;11.868;2023-09-12T12:47:07;31.30;55.40
15394;DHT22;7795;47.986;11.868;2023-09-12T12:49:36;31.30;55.70
15394;DHT22;7795;47.986;11.868;2023-09-12T12:52:04;31.40;55.40
15394;DHT22;7795;47.986;11.868;2023-09-12T12:54:31;31.40;55.40
15394;DHT22;7795;47.986;11.868;2023-09-12T12:56:59;31.40;55.10
15394;DHT22;7795;47.986;11.868;2023-09-12T12:59:25;31.40;55.00
15394;DHT22;7795;47.986;11.868;2023-09-12T13:01:52;31.30;55.10
15394;DHT22;7795;47.986;11.868;2023-09-12T13:04:17;31.40;55.30
15394;DHT22;7795;47.986;11.868;2023-09-12T13:06:43;31.40;55.40
15394;DHT22;7795;47.986;11.868;2023-09-12T13:09:09;31.40;54.90
15394;DHT22;7795;47.986;11.868;2023-09-12T13:11:37;31.40;54.70
15394;DHT22;7795;47.986;11.868;2023-09-12T13:14:04;31.40;54.70
15394;DHT22;7795;47.986;11.868;2023-09-12T13:16:36;31.40;54.60
15394;DHT22;7795;47.986;11.868;2023-09-12T13:19:04;31.40;54.60
15394;DHT22;7795;47.986;11.868;2023-09-12T13:21:30;31.50;54.30
15394;DHT22;7795;47.986;11.868;2023-09-12T13:23:57;31.50;54.40
15394;DHT22;7795;47.986;11.868;2023-09-12T13:26:23;31.50;54.00
15394;DHT22;7795;47.986;11.868;2023-09-12T13:28:49;31.50;53.90
15394;DHT22;7795;47.986;11.868;2023-09-12T13:31:15;31.50;54.10
15394;DHT22;7795;47.986;11.868;2023-09-12T13:33:40;31.50;54.40
15394;DHT22;7795;47.986;11.868;2023-09-12T13:36:09;31.40;53.90
15394;DHT22;7795;47.986;11.868;2023-09-12T13:38:34;31.40;53.80
15394;DHT22;7795;47.986;11.868;2023-09-12T13:41:00;31.40;53.80
15394;DHT22;7795;47.986;11.868;2023-09-12T13:43:26;31.40;54.00
15394;DHT22;7795;47.986;11.868;2023-09-12T13:45:53;31.40;54.30
15394;DHT22;7795;47.986;11.868;2023-09-12T13:48:19;31.40;54.60
15394;DHT22;7795;47.986;11.868;2023-09-12T13:50:45;31.40;54.70
15394;DHT22;7795;47.986;11.868;2023-09-12T13:53:12;31.40;54.60
15394;DHT22;7795;47.986;11.868;2023-09-12T13:55:38;31.40;54.60
15394;DHT22;7795;47.986;11.868;2023-09-12T13:58:05;31.40;54.50
15394;DHT22;7795;47.986;11.868;2023-09-12T14:00:32;31.40;54.40
15394;DHT22;7795;47.986;11.868;2023-09-12T14:02:57;31.40;54.60
15394;DHT22;7795;47.986;11.868;2023-09-12T14:05:23;31.40;54.20
15394;DHT22;7795;47.986;11.868;2023-09-12T14:07:50;31.30;54.10
15394;DHT22;7795;47.986;11.868;2023-09-12T14:10:18;31.30;53.90
15394;DHT22;7795;47.986;11.868;2023-09-12T14:12:43;31.30;53.80
15394;DHT22;7795;47.986;11.868;2023-09-12T14:15:12;31.30;53.90
15394;DHT22;7795;47.986;11.868;2023-09-12T14:17:40;31.20;53.90
15394;DHT22;7795;47.986;11.868;2023-09-12T14:20:06;31.20;54.10
15394;DHT22;7795;47.986;11.868;2023-09-12T14:22:34;31.20;54.20
15394;DHT22;7795;47.986;11.868;2023-09-12T14:24:59;31.20;53.90
15394;DHT22;7795;47.986;11.868;2023-09-12T14:27:27;31.20;53.70
15394;DHT22;7795;47.986;11.868;2023-09-12T14:29:53;31.20;53.60
15394;DHT22;7795;47.986;11.868;2023-09-12T14:32:19;31.20;53.60
15394;DHT22;7795;47.986;11.868;2023-09-12T14:34:44;31.20;53.30
15394;DHT22;7795;47.986;11.868;2023-09-12T14:37:11;31.20;53.10
15394;DHT22;7795;47.986;11.868;2023-09-12T14:39:36;31.20;53.00
15394;DHT22;7795;47.986;11.868;2023-09-12T14:42:02;31.20;53.20
15394;DHT22;7795;47.986;11.868;2023-09-12T14:44:35;31.20;53.00
15394;DHT22;7795;47.986;11.868;2023-09-12T14:47:01;31.20;52.80
15394;DHT22;7795;47.986;11.868;2023-09-12T14:49:26;31.20;52.90
15394;DHT22;7795;47.986;11.868;2023-09-12T14:51:52;31.20;52.70
15394;DHT22;7795;47.986;11.868;2023-09-12T14:54:19;31.10;52.50
15394;DHT22;7795;47.986;11.868;2023-09-12T14:56:44;31.20;52.60
15394;DHT22;7795;47.986;11.868;2023-09-12T14:59:10;31.10;52.60
15394;DHT22;7795;47.986;11.868;2023-09-12T15:01:38;31.20;52.70
15394;DHT22;7795;47.986;11.868;2023-09-12T15:04:04;31.10;52.50
15394;DHT22;7795;47.986;11.868;2023-09-12T15:06:29;31.20;52.40
15394;DHT22;7795;47.986;11.868;2023-09-12T15:08:58;31.20;52.30
15394;DHT22;7795;47.986;11.868;2023-09-12T15:11:24;31.10;52.40
15394;DHT22;7795;47.986;11.868;2023-09-12T15:13:49;31.10;52.80
15394;DHT22;7795;47.986;11.868;2023-09-12T15:16:15;31.10;52.50
15394;DHT22;7795;47.986;11.868;2023-09-12T15:18:42;31.10;52.40
15394;DHT22;7795;47.986;11.868;2023-09-12T15:21:08;31.10;52.10
15394;DHT22;7795;47.986;11.868;2023-09-12T15:23:34;31.10;52.30
15394;DHT22;7795;47.986;11.868;2023-09-12T15:26:00;31.10;52.40
15394;DHT22;7795;47.986;11.868;2023-09-12T15:28:26;31.10;52.20
15394;DHT22;7795;47.986;11.868;2023-09-12T15:30:52;31.10;52.40